Time,TemperatureF,DewpointF,PressureIn,WindDirection,WindDirectionDegrees,WindSpeedMPH,WindSpeedGustMPH,Humidity,HourlyPrecipIn,Conditions,Clouds,dailyrainin,SoftwareType,DateUTC
2013-09-06 00:01:00,68.9,63.2,30.18,NNW,338,0.0,0.0,82,0.00,,,0.00,WUHU216HW,2013-09-06 04:01:00,
2013-09-06 00:02:00,68.9,63.2,30.18,NNW,338,0.0,0.0,82,0.00,,,0.00,WUHU216HW,2013-09-06 04:02:00,
2013-09-06 00:04:00,68.9,63.5,30.18,North,6,1.4,2.2,83,0.00,,,0.00,WUHU216HW,2013-09-06 04:04:00,
2013-09-06 00:05:00,68.9,63.5,30.18,NNE,14,0.5,2.2,83,0.00,,,0.00,WUHU216HW,2013-09-06 04:05:00,
2013-09-06 00:10:00,69.1,63.7,30.18,NNW,336,1.0,2.2,83,0.00,,,0.00,WUHU216HW,2013-09-06 04:10:00,
2013-09-06 00:15:00,69.1,63.4,30.18,North,0,1.8,2.0,82,0.00,,,0.00,WUHU216HW,2013-09-06 04:15:00,
2013-09-06 00:20:00,69.1,63.7,30.18,North,0,0.5,1.8,83,0.00,,,0.00,WUHU216HW,2013-09-06 04:20:00,
2013-09-06 00:25:00,68.9,63.2,30.18,NW,315,0.0,0.9,82,0.00,,,0.00,WUHU216HW,2013-09-06 04:25:00,
2013-09-06 00:30:00,68.9,63.2,30.18,WSW,248,1.1,1.1,82,0.00,,,0.00,WUHU216HW,2013-09-06 04:30:00,
2013-09-06 00:35:00,68.8,62.7,30.19,North,0,0.0,1.1,81,0.00,,,0.00,WUHU216HW,2013-09-06 04:35:00,
2013-09-06 00:41:00,68.6,62.6,30.19,North,0,1.1,1.1,81,0.00,,,0.00,WUHU216HW,2013-09-06 04:41:00,
2013-09-06 00:46:00,68.2,62.2,30.19,North,0,0.2,1.1,81,0.00,,,0.00,WUHU216HW,2013-09-06 04:46:00,
2013-09-06 00:51:00,68.0,62.1,30.19,North,0,1.1,1.1,81,0.00,,,0.00,WUHU216HW,2013-09-06 04:51:00,
2013-09-06 00:56:00,68.0,62.1,30.19,North,0,0.4,1.1,81,0.00,,,0.00,WUHU216HW,2013-09-06 04:56:00,
2013-09-06 01:01:00,68.0,61.7,30.19,NNE,23,0.9,0.9,80,0.00,,,0.00,WUHU216HW,2013-09-06 05:01:00,
2013-09-06 01:06:00,67.9,61.6,30.19,ENE,68,0.0,0.9,80,0.00,,,0.00,WUHU216HW,2013-09-06 05:06:00,
2013-09-06 01:11:00,67.7,61.4,30.20,North,0,0.0,0.9,80,0.00,,,0.00,WUHU216HW,2013-09-06 05:11:00,
2013-09-06 01:16:00,67.3,61.0,30.19,NNW,338,0.0,0.7,80,0.00,,,0.00,WUHU216HW,2013-09-06 05:16:00,
2013-09-06 01:21:00,67.1,60.8,30.20,NNE,23,0.0,0.7,80,0.00,,,0.00,WUHU216HW,2013-09-06 05:21:00,
2013-09-06 01:26:00,67.0,60.7,30.20,NNW,338,0.2,0.2,80,0.00,,,0.00,WUHU216HW,2013-09-06 05:26:00,
2013-09-06 01:32:00,67.0,60.7,30.20,NE,45,0.0,0.2,80,0.00,,,0.00,WUHU216HW,2013-09-06 05:32:00,
2013-09-06 01:37:00,66.8,60.5,30.20,ENE,68,0.0,0.2,80,0.00,,,0.00,WUHU216HW,2013-09-06 05:37:00,
2013-09-06 01:42:00,66.6,60.3,30.20,North,0,0.0,0.0,80,0.00,,,0.00,WUHU216HW,2013-09-06 05:42:00,
2013-09-06 01:47:00,66.4,60.5,30.20,NE,45,0.0,0.0,81,0.00,,,0.00,WUHU216HW,2013-09-06 05:47:00,
2013-09-06 01:52:00,66.2,60.3,30.20,North,0,0.0,0.0,81,0.00,,,0.00,WUHU216HW,2013-09-06 05:52:00,
2013-09-06 01:57:00,66.4,60.1,30.20,NE,45,0.0,0.0,80,0.00,,,0.00,WUHU216HW,2013-09-06 05:57:00,
2013-09-06 02:02:00,66.4,60.1,30.20,NNE,23,0.0,0.0,80,0.00,,,0.00,WUHU216HW,2013-09-06 06:02:00,
2013-09-06 02:07:00,66.2,59.9,30.20,NNW,338,0.0,0.0,80,0.00,,,0.00,WUHU216HW,2013-09-06 06:07:00,
2013-09-06 02:12:00,65.9,59.6,30.20,NNW,338,0.0,0.0,80,0.00,,,0.00,WUHU216HW,2013-09-06 06:12:00,
2013-09-06 02:17:00,65.9,59.6,30.19,North,0,0.4,0.4,80,0.00,,,0.00,WUHU216HW,2013-09-06 06:17:00,
2013-09-06 02:23:00,65.9,60.0,30.19,NE,45,0.4,0.4,81,0.00,,,0.00,WUHU216HW,2013-09-06 06:23:00,
2013-09-06 02:28:00,65.7,59.8,30.19,North,0,0.0,0.4,81,0.00,,,0.00,WUHU216HW,2013-09-06 06:28:00,
2013-09-06 02:33:00,65.5,59.6,30.19,WSW,248,0.2,0.4,81,0.00,,,0.00,WUHU216HW,2013-09-06 06:33:00,
2013-09-06 02:38:00,65.5,59.6,30.19,WSW,248,0.4,0.4,81,0.00,,,0.00,WUHU216HW,2013-09-06 06:38:00,
2013-09-06 02:43:00,65.5,59.2,30.19,NE,45,0.0,0.4,80,0.00,,,0.00,WUHU216HW,2013-09-06 06:43:00,
2013-09-06 02:48:00,65.7,59.4,30.19,East,91,0.4,0.4,80,0.00,,,0.00,WUHU216HW,2013-09-06 06:48:00,
2013-09-06 02:53:00,65.7,59.4,30.19,WSW,248,0.2,0.4,80,0.00,,,0.00,WUHU216HW,2013-09-06 06:53:00,
2013-09-06 02:58:00,65.7,59.4,30.18,WSW,248,0.2,0.2,80,0.00,,,0.00,WUHU216HW,2013-09-06 06:58:00,
2013-09-06 03:03:00,65.7,59.4,30.18,NW,315,0.4,0.4,80,0.00,,,0.00,WUHU216HW,2013-09-06 07:03:00,
2013-09-06 03:08:00,65.7,59.4,30.18,NW,315,0.0,0.4,80,0.00,,,0.00,WUHU216HW,2013-09-06 07:08:00,
2013-09-06 03:13:00,65.9,59.6,30.18,East,90,0.0,0.0,80,0.00,,,0.00,WUHU216HW,2013-09-06 07:13:00,
2013-09-06 03:19:00,65.9,59.6,30.18,North,359,0.6,1.1,80,0.00,,,0.00,WUHU216HW,2013-09-06 07:19:00,
2013-09-06 03:24:00,65.9,59.6,30.18,North,0,0.4,1.1,80,0.00,,,0.00,WUHU216HW,2013-09-06 07:24:00,
2013-09-06 03:29:00,65.9,59.6,30.18,North,0,0.4,0.4,80,0.00,,,0.00,WUHU216HW,2013-09-06 07:29:00,
2013-09-06 03:34:00,65.9,59.6,30.18,North,0,0.0,0.4,80,0.00,,,0.00,WUHU216HW,2013-09-06 07:34:00,
2013-09-06 03:39:00,65.9,59.6,30.19,NW,315,0.7,0.7,80,0.00,,,0.00,WUHU216HW,2013-09-06 07:39:00,
2013-09-06 03:44:00,65.9,59.6,30.19,NNE,23,0.9,0.9,80,0.00,,,0.00,WUHU216HW,2013-09-06 07:44:00,
2013-09-06 03:49:00,65.7,59.4,30.19,WSW,248,0.0,0.9,80,0.00,,,0.00,WUHU216HW,2013-09-06 07:49:00,
2013-09-06 03:54:00,65.7,59.4,30.19,NE,51,1.0,1.1,80,0.00,,,0.00,WUHU216HW,2013-09-06 07:54:00,
2013-09-06 03:59:00,65.5,59.2,30.19,North,0,0.5,1.6,80,0.00,,,0.00,WUHU216HW,2013-09-06 07:59:00,
2013-09-06 04:04:00,65.7,59.4,30.19,North,0,0.0,1.6,80,0.00,,,0.00,WUHU216HW,2013-09-06 08:04:00,
2013-09-06 04:09:00,65.5,59.2,30.19,NNW,338,0.0,0.4,80,0.00,,,0.00,WUHU216HW,2013-09-06 08:09:00,
2013-09-06 04:15:00,65.5,59.2,30.20,NE,45,0.0,0.0,80,0.00,,,0.00,WUHU216HW,2013-09-06 08:15:00,
2013-09-06 04:20:00,65.2,59.2,30.19,NNE,23,0.4,0.4,81,0.00,,,0.00,WUHU216HW,2013-09-06 08:20:00,
2013-09-06 04:25:00,65.2,59.2,30.19,NNE,23,0.4,0.4,81,0.00,,,0.00,WUHU216HW,2013-09-06 08:25:00,
2013-09-06 04:30:00,65.0,59.1,30.19,NNW,338,0.0,0.4,81,0.00,,,0.00,WUHU216HW,2013-09-06 08:30:00,
2013-09-06 04:35:00,65.0,59.1,30.20,NNW,338,0.0,0.0,81,0.00,,,0.00,WUHU216HW,2013-09-06 08:35:00,
2013-09-06 04:40:00,64.8,58.9,30.20,NNW,338,0.0,0.0,81,0.00,,,0.00,WUHU216HW,2013-09-06 08:40:00,
2013-09-06 04:45:00,64.8,58.9,30.20,NNW,338,0.0,0.0,81,0.00,,,0.00,WUHU216HW,2013-09-06 08:45:00,
2013-09-06 04:50:00,64.6,58.7,30.20,NNW,338,0.0,0.0,81,0.00,,,0.00,WUHU216HW,2013-09-06 08:50:00,
2013-09-06 04:55:00,64.4,58.9,30.20,South,180,0.0,0.0,82,0.00,,,0.00,WUHU216HW,2013-09-06 08:55:00,
2013-09-06 05:00:00,64.4,58.9,30.20,NW,315,0.0,0.0,82,0.00,,,0.00,WUHU216HW,2013-09-06 09:00:00,
2013-09-06 05:05:00,64.4,58.9,30.20,NW,315,0.0,0.0,82,0.00,,,0.00,WUHU216HW,2013-09-06 09:05:00,
2013-09-06 05:10:00,64.4,58.9,30.20,NNW,338,0.0,0.0,82,0.00,,,0.00,WUHU216HW,2013-09-06 09:10:00,
2013-09-06 05:16:00,64.3,58.7,30.20,NNW,338,0.0,0.0,82,0.00,,,0.00,WUHU216HW,2013-09-06 09:16:00,
2013-09-06 05:21:00,64.1,58.2,30.20,NNW,338,0.0,0.0,81,0.00,,,0.00,WUHU216HW,2013-09-06 09:21:00,
2013-09-06 05:26:00,63.9,58.0,30.20,NNW,338,0.0,0.0,81,0.00,,,0.00,WUHU216HW,2013-09-06 09:26:00,
2013-09-06 05:31:00,63.9,58.0,30.21,NNW,338,0.0,0.0,81,0.00,,,0.00,WUHU216HW,2013-09-06 09:31:00,
2013-09-06 05:36:00,63.7,57.8,30.21,NNW,338,0.0,0.0,81,0.00,,,0.00,WUHU216HW,2013-09-06 09:36:00,
2013-09-06 05:41:00,63.5,58.0,30.21,NNW,338,0.0,0.0,82,0.00,,,0.00,WUHU216HW,2013-09-06 09:41:00,
2013-09-06 05:46:00,63.5,58.0,30.21,NNW,338,0.0,0.0,82,0.00,,,0.00,WUHU216HW,2013-09-06 09:46:00,
2013-09-06 05:51:00,63.4,57.8,30.20,NNW,338,0.4,0.4,82,0.00,,,0.00,WUHU216HW,2013-09-06 09:51:00,
2013-09-06 05:56:00,63.4,58.1,30.20,North,0,0.0,0.4,83,0.00,,,0.00,WUHU216HW,2013-09-06 09:56:00,
2013-09-06 06:01:00,63.4,58.1,30.21,North,0,0.0,0.0,83,0.00,,,0.00,WUHU216HW,2013-09-06 10:01:00,
2013-09-06 06:06:00,63.0,57.7,30.21,NW,315,0.2,0.2,83,0.00,,,0.00,WUHU216HW,2013-09-06 10:06:00,
2013-09-06 06:12:00,62.6,57.3,30.21,NW,315,0.0,0.2,83,0.00,,,0.00,WUHU216HW,2013-09-06 10:12:00,
2013-09-06 06:17:00,62.5,57.3,30.21,NNW,338,0.0,0.0,83,0.00,,,0.00,WUHU216HW,2013-09-06 10:17:00,
2013-09-06 06:22:00,62.5,57.3,30.21,NNE,23,0.7,0.7,83,0.00,,,0.00,WUHU216HW,2013-09-06 10:22:00,
2013-09-06 06:27:00,62.3,57.3,30.21,North,0,0.0,0.9,84,0.00,,,0.00,WUHU216HW,2013-09-06 10:27:00,
2013-09-06 06:32:00,62.3,57.7,30.22,North,352,1.0,1.8,85,0.00,,,0.00,WUHU216HW,2013-09-06 10:32:00,
2013-09-06 06:37:00,62.3,57.7,30.22,NNW,338,1.6,1.8,85,0.00,,,0.00,WUHU216HW,2013-09-06 10:37:00,
2013-09-06 06:42:00,62.3,57.7,30.22,WSW,248,0.0,1.6,85,0.00,,,0.00,WUHU216HW,2013-09-06 10:42:00,
2013-09-06 06:47:00,62.3,57.7,30.22,NNE,23,0.2,1.6,85,0.00,,,0.00,WUHU216HW,2013-09-06 10:47:00,
2013-09-06 06:52:00,62.3,57.7,30.22,NNE,23,0.4,0.4,85,0.00,,,0.00,WUHU216HW,2013-09-06 10:52:00,
2013-09-06 06:57:00,62.3,57.7,30.23,North,0,1.1,1.1,85,0.00,,,0.00,WUHU216HW,2013-09-06 10:57:00,
2013-09-06 07:02:00,62.3,57.7,30.23,NW,315,0.4,1.1,85,0.00,,,0.00,WUHU216HW,2013-09-06 11:02:00,
2013-09-06 07:07:00,62.3,58.1,30.23,North,0,0.4,0.4,86,0.00,,,0.00,WUHU216HW,2013-09-06 11:07:00,
2013-09-06 07:13:00,62.5,58.2,30.23,North,0,0.4,0.4,86,0.00,,,0.00,WUHU216HW,2013-09-06 11:13:00,
2013-09-06 07:18:00,62.5,58.2,30.23,North,0,0.0,0.4,86,0.00,,,0.00,WUHU216HW,2013-09-06 11:18:00,
2013-09-06 07:23:00,62.6,58.4,30.23,North,0,3.4,3.4,86,0.00,,,0.00,WUHU216HW,2013-09-06 11:23:00,
2013-09-06 07:28:00,62.6,58.4,30.23,North,0,1.3,3.4,86,0.00,,,0.00,WUHU216HW,2013-09-06 11:28:00,
2013-09-06 07:33:00,62.8,58.6,30.23,North,0,1.1,2.0,86,0.00,,,0.00,WUHU216HW,2013-09-06 11:33:00,
2013-09-06 07:38:00,63.0,58.8,30.23,North,0,0.7,1.3,86,0.00,,,0.00,WUHU216HW,2013-09-06 11:38:00,
2013-09-06 07:43:00,63.0,58.8,30.24,NW,315,0.0,1.1,86,0.00,,,0.00,WUHU216HW,2013-09-06 11:43:00,
2013-09-06 07:48:00,63.2,59.0,30.24,NW,315,0.2,0.9,86,0.00,,,0.00,WUHU216HW,2013-09-06 11:48:00,
2013-09-06 07:53:00,63.2,59.0,30.24,NNW,338,1.3,1.3,86,0.00,,,0.00,WUHU216HW,2013-09-06 11:53:00,
2013-09-06 07:58:00,63.7,59.5,30.24,NNE,22,1.1,1.3,86,0.00,,,0.00,WUHU216HW,2013-09-06 11:58:00,
2013-09-06 08:03:00,63.9,59.7,30.24,SW,225,1.1,1.3,86,0.00,,,0.00,WUHU216HW,2013-09-06 12:03:00,
2013-09-06 08:09:00,64.1,60.2,30.25,NE,45,0.7,1.1,87,0.00,,,0.00,WUHU216HW,2013-09-06 12:09:00,
2013-09-06 08:14:00,64.6,60.4,30.25,NE,35,1.3,1.6,86,0.00,,,0.00,WUHU216HW,2013-09-06 12:14:00,
2013-09-06 08:19:00,66.1,61.4,30.25,NW,315,1.3,1.6,85,0.00,,,0.00,WUHU216HW,2013-09-06 12:19:00,
2013-09-06 08:24:00,67.7,62.6,30.25,NNW,329,0.8,1.3,84,0.00,,,0.00,WUHU216HW,2013-09-06 12:24:00,
2013-09-06 08:29:00,68.8,62.7,30.25,North,0,0.4,1.3,81,0.00,,,0.00,WUHU216HW,2013-09-06 12:29:00,
2013-09-06 08:34:00,69.3,62.9,30.25,NE,45,0.4,0.4,80,0.00,,,0.00,WUHU216HW,2013-09-06 12:34:00,
2013-09-06 08:39:00,69.5,62.6,30.25,NNW,338,2.3,2.7,79,0.00,,,0.00,WUHU216HW,2013-09-06 12:39:00,
2013-09-06 08:44:00,69.3,62.5,30.25,NW,315,2.9,2.9,79,0.00,,,0.00,WUHU216HW,2013-09-06 12:44:00,
2013-09-06 08:49:00,69.1,61.9,30.25,SW,225,1.1,2.9,78,0.00,,,0.00,WUHU216HW,2013-09-06 12:49:00,
2013-09-06 08:54:00,69.1,61.9,30.25,North,0,2.5,2.9,78,0.00,,,0.00,WUHU216HW,2013-09-06 12:54:00,
2013-09-06 08:59:00,69.3,61.7,30.26,NNE,23,2.0,2.5,77,0.00,,,0.00,WUHU216HW,2013-09-06 12:59:00,
2013-09-06 09:04:00,69.5,62.3,30.25,North,0,2.2,2.2,78,0.00,,,0.00,WUHU216HW,2013-09-06 13:04:00,
2013-09-06 09:10:00,70.2,62.2,30.25,NE,45,2.2,2.2,76,0.00,,,0.00,WUHU216HW,2013-09-06 13:10:00,
2013-09-06 09:15:00,70.7,62.7,30.25,NNE,23,2.2,2.2,76,0.00,,,0.00,WUHU216HW,2013-09-06 13:15:00,
2013-09-06 09:20:00,70.9,62.6,30.26,NNE,18,1.1,2.2,75,0.00,,,0.00,WUHU216HW,2013-09-06 13:20:00,
2013-09-06 09:25:00,71.6,62.9,30.26,NNE,23,2.5,2.5,74,0.00,,,0.00,WUHU216HW,2013-09-06 13:25:00,
2013-09-06 09:30:00,72.0,62.5,30.26,NNE,23,1.9,2.5,72,0.00,,,0.00,WUHU216HW,2013-09-06 13:30:00,
2013-09-06 09:35:00,72.0,63.3,30.26,NE,45,2.7,2.7,74,0.00,,,0.00,WUHU216HW,2013-09-06 13:35:00,
2013-09-06 09:40:00,72.5,63.5,30.26,NE,45,0.7,2.7,73,0.00,,,0.00,WUHU216HW,2013-09-06 13:40:00,
2013-09-06 09:45:00,73.1,63.5,30.26,NE,45,0.9,2.7,72,0.00,,,0.00,WUHU216HW,2013-09-06 13:45:00,
2013-09-06 09:50:00,73.8,63.9,30.26,ENE,68,1.8,1.8,71,0.00,,,0.00,WUHU216HW,2013-09-06 13:50:00,
2013-09-06 09:55:00,73.8,63.9,30.26,ENE,68,1.6,1.8,71,0.00,,,0.00,WUHU216HW,2013-09-06 13:55:00,
2013-09-06 10:00:00,74.2,63.8,30.26,NE,47,1.8,3.4,70,0.00,,,0.00,WUHU216HW,2013-09-06 14:00:00,
2013-09-06 10:06:00,74.3,62.2,30.26,ENE,68,3.6,3.6,66,0.00,,,0.00,WUHU216HW,2013-09-06 14:06:00,
2013-09-06 10:11:00,74.5,62.4,30.26,NNE,23,2.5,3.6,66,0.00,,,0.00,WUHU216HW,2013-09-06 14:11:00,
2013-09-06 10:16:00,74.5,62.4,30.27,ENE,68,2.5,3.6,66,0.00,,,0.00,WUHU216HW,2013-09-06 14:16:00,
2013-09-06 10:21:00,75.1,63.8,30.27,SW,225,0.4,2.5,68,0.00,,,0.00,WUHU216HW,2013-09-06 14:21:00,
2013-09-06 10:26:00,76.1,64.4,30.27,WSW,248,1.3,2.5,67,0.00,,,0.00,WUHU216HW,2013-09-06 14:26:00,
2013-09-06 10:31:00,76.7,64.0,30.27,NE,45,2.5,2.5,65,0.00,,,0.00,WUHU216HW,2013-09-06 14:31:00,
2013-09-06 10:36:00,76.7,64.0,30.27,North,0,0.9,2.5,65,0.00,,,0.00,WUHU216HW,2013-09-06 14:36:00,
2013-09-06 10:41:00,77.0,64.8,30.27,NE,45,1.3,2.5,66,0.00,,,0.00,WUHU216HW,2013-09-06 14:41:00,
2013-09-06 10:46:00,78.1,65.0,30.27,SSE,158,1.6,1.6,64,0.00,,,0.00,WUHU216HW,2013-09-06 14:46:00,
2013-09-06 10:51:00,78.7,65.4,30.27,SE,146,1.3,1.6,64,0.00,,,0.00,WUHU216HW,2013-09-06 14:51:00,
2013-09-06 10:56:00,78.5,63.0,30.27,West,270,2.5,2.9,59,0.00,,,0.00,WUHU216HW,2013-09-06 14:56:00,
2013-09-06 11:02:00,78.5,64.0,30.27,SSE,158,0.7,2.9,61,0.00,,,0.00,WUHU216HW,2013-09-06 15:02:00,
2013-09-06 11:07:00,78.8,64.8,30.28,SSE,158,1.1,2.5,62,0.00,,,0.00,WUHU216HW,2013-09-06 15:07:00,
2013-09-06 11:12:00,79.2,63.7,30.28,NE,45,2.2,2.2,59,0.00,,,0.00,WUHU216HW,2013-09-06 15:12:00,
2013-09-06 11:17:00,78.8,62.4,30.27,NE,41,1.8,2.2,57,0.00,,,0.00,WUHU216HW,2013-09-06 15:17:00,
2013-09-06 11:22:00,78.5,62.5,30.27,North,0,1.8,2.2,58,0.00,,,0.00,WUHU216HW,2013-09-06 15:22:00,
2013-09-06 11:27:00,78.5,63.5,30.27,SSW,203,1.3,1.8,60,0.00,,,0.00,WUHU216HW,2013-09-06 15:27:00,
2013-09-06 11:32:00,79.0,63.0,30.27,North,0,1.1,1.8,58,0.00,,,0.00,WUHU216HW,2013-09-06 15:32:00,
2013-09-06 11:37:00,80.1,65.1,30.27,SE,135,2.0,2.0,60,0.00,,,0.00,WUHU216HW,2013-09-06 15:37:00,
2013-09-06 11:42:00,80.6,65.5,30.27,SSE,154,0.9,2.0,60,0.00,,,0.00,WUHU216HW,2013-09-06 15:42:00,
2013-09-06 11:47:00,80.6,64.0,30.27,ESE,113,3.1,3.1,57,0.00,,,0.00,WUHU216HW,2013-09-06 15:47:00,
2013-09-06 11:52:00,80.8,64.1,30.26,NNE,23,1.3,3.1,57,0.00,,,0.00,WUHU216HW,2013-09-06 15:52:00,
2013-09-06 11:57:00,81.0,64.3,30.26,SE,135,4.7,4.7,57,0.00,,,0.00,WUHU216HW,2013-09-06 15:57:00,
2013-09-06 12:03:00,81.2,63.9,30.26,NE,45,2.4,4.7,56,0.00,,,0.00,WUHU216HW,2013-09-06 16:03:00,
2013-09-06 12:08:00,81.4,64.1,30.26,North,0,2.2,4.7,56,0.00,,,0.00,WUHU216HW,2013-09-06 16:08:00,
2013-09-06 12:13:00,81.5,65.3,30.26,ENE,68,2.2,2.5,58,0.00,,,0.00,WUHU216HW,2013-09-06 16:13:00,
2013-09-06 12:18:00,81.4,63.0,30.26,NE,45,1.6,2.2,54,0.00,,,0.00,WUHU216HW,2013-09-06 16:18:00,
2013-09-06 12:23:00,81.5,64.3,30.26,SE,135,1.8,2.2,56,0.00,,,0.00,WUHU216HW,2013-09-06 16:23:00,
2013-09-06 12:28:00,81.9,63.6,30.26,NE,45,1.1,1.8,54,0.00,,,0.00,WUHU216HW,2013-09-06 16:28:00,
2013-09-06 12:33:00,82.3,64.4,30.25,NNW,338,1.6,1.8,55,0.00,,,0.00,WUHU216HW,2013-09-06 16:33:00,
2013-09-06 12:38:00,82.4,64.5,30.25,SSE,158,3.4,3.4,55,0.00,,,0.00,WUHU216HW,2013-09-06 16:38:00,
2013-09-06 12:43:00,82.6,65.3,30.25,South,180,2.5,3.4,56,0.00,,,0.00,WUHU216HW,2013-09-06 16:43:00,
2013-09-06 12:48:00,83.0,65.1,30.25,NNE,23,0.9,3.4,55,0.00,,,0.00,WUHU216HW,2013-09-06 16:48:00,
2013-09-06 12:53:00,83.2,64.7,30.25,SE,135,1.8,2.5,54,0.00,,,0.00,WUHU216HW,2013-09-06 16:53:00,
2013-09-06 12:58:00,83.9,66.0,30.25,East,81,0.7,1.8,55,0.00,,,0.00,WUHU216HW,2013-09-06 16:58:00,
2013-09-06 13:04:00,84.1,66.2,30.25,SE,135,1.8,1.8,55,0.00,,,0.00,WUHU216HW,2013-09-06 17:04:00,
2013-09-06 13:09:00,84.6,66.7,30.24,SSE,158,9.8,9.8,55,0.00,,,0.00,WUHU216HW,2013-09-06 17:09:00,
2013-09-06 13:14:00,84.8,65.8,30.25,SSE,167,5.9,9.8,53,0.00,,,0.00,WUHU216HW,2013-09-06 17:14:00,
2013-09-06 13:19:00,85.0,66.0,30.24,NNE,23,2.9,9.8,53,0.00,,,0.00,WUHU216HW,2013-09-06 17:19:00,
2013-09-06 13:24:00,83.5,62.4,30.24,NNE,23,3.4,3.8,49,0.00,,,0.00,WUHU216HW,2013-09-06 17:24:00,
2013-09-06 13:29:00,82.8,63.4,30.24,ENE,68,1.8,3.4,52,0.00,,,0.00,WUHU216HW,2013-09-06 17:29:00,
2013-09-06 13:34:00,83.0,64.0,30.24,South,180,4.0,4.0,53,0.00,,,0.00,WUHU216HW,2013-09-06 17:34:00,
2013-09-06 13:39:00,83.9,63.4,30.23,NNE,23,4.0,4.0,50,0.00,,,0.00,WUHU216HW,2013-09-06 17:39:00,
2013-09-06 13:44:00,83.7,63.2,30.24,NW,315,0.9,4.0,50,0.00,,,0.00,WUHU216HW,2013-09-06 17:44:00,
2013-09-06 13:49:00,83.9,63.9,30.23,ESE,105,1.2,4.0,51,0.00,,,0.00,WUHU216HW,2013-09-06 17:49:00,
2013-09-06 13:54:00,85.1,65.6,30.23,North,0,2.5,2.5,52,0.00,,,0.00,WUHU216HW,2013-09-06 17:54:00,
2013-09-06 14:00:00,85.3,65.7,30.23,East,90,4.5,4.5,52,0.00,,,0.00,WUHU216HW,2013-09-06 18:00:00,
2013-09-06 14:05:00,85.3,64.7,30.23,NE,54,4.5,6.3,50,0.00,,,0.00,WUHU216HW,2013-09-06 18:05:00,
2013-09-06 14:10:00,85.3,65.7,30.23,ESE,113,1.6,6.3,52,0.00,,,0.00,WUHU216HW,2013-09-06 18:10:00,
2013-09-06 14:15:00,85.7,65.5,30.23,SE,135,0.9,1.6,51,0.00,,,0.00,WUHU216HW,2013-09-06 18:15:00,
2013-09-06 14:20:00,86.2,66.5,30.22,SSE,158,1.3,1.6,52,0.00,,,0.00,WUHU216HW,2013-09-06 18:20:00,
2013-09-06 14:25:00,86.2,63.6,30.22,North,0,4.0,6.9,47,0.00,,,0.00,WUHU216HW,2013-09-06 18:25:00,
2013-09-06 14:30:00,84.1,64.1,30.22,SSW,203,1.8,6.9,51,0.00,,,0.00,WUHU216HW,2013-09-06 18:30:00,
2013-09-06 14:35:00,84.6,64.5,30.22,South,191,1.1,4.0,51,0.00,,,0.00,WUHU216HW,2013-09-06 18:35:00,
2013-09-06 14:40:00,85.0,62.5,30.22,NE,45,6.7,6.7,47,0.00,,,0.00,WUHU216HW,2013-09-06 18:40:00,
2013-09-06 14:45:00,84.6,63.5,30.22,NE,45,1.8,6.7,49,0.00,,,0.00,WUHU216HW,2013-09-06 18:45:00,
2013-09-06 14:50:00,84.6,64.1,30.22,West,270,0.9,6.7,50,0.00,,,0.00,WUHU216HW,2013-09-06 18:50:00,
2013-09-06 14:56:00,84.8,64.2,30.21,SSE,158,0.4,2.5,50,0.00,,,0.00,WUHU216HW,2013-09-06 18:56:00,
2013-09-06 15:01:00,84.1,62.3,30.21,North,0,2.2,2.5,48,0.00,,,0.00,WUHU216HW,2013-09-06 19:01:00,
2013-09-06 15:06:00,83.7,62.6,30.21,South,180,3.6,3.6,49,0.00,,,0.00,WUHU216HW,2013-09-06 19:06:00,
2013-09-06 15:11:00,83.5,63.0,30.21,WSW,237,2.5,3.6,50,0.00,,,0.00,WUHU216HW,2013-09-06 19:11:00,
2013-09-06 15:16:00,83.7,64.7,30.20,SSE,158,3.1,3.6,53,0.00,,,0.00,WUHU216HW,2013-09-06 19:16:00,
2013-09-06 15:21:00,84.6,65.6,30.20,WNW,293,1.6,3.1,53,0.00,,,0.00,WUHU216HW,2013-09-06 19:21:00,
2013-09-06 15:26:00,84.2,63.1,30.20,NNE,23,2.2,3.1,49,0.00,,,0.00,WUHU216HW,2013-09-06 19:26:00,
2013-09-06 15:31:00,83.2,63.2,30.20,SSE,158,2.2,2.2,51,0.00,,,0.00,WUHU216HW,2013-09-06 19:31:00,
2013-09-06 15:36:00,83.5,62.4,30.20,NE,45,3.4,3.4,49,0.00,,,0.00,WUHU216HW,2013-09-06 19:36:00,
2013-09-06 15:41:00,83.7,63.2,30.20,NNW,342,1.7,3.4,50,0.00,,,0.00,WUHU216HW,2013-09-06 19:41:00,
2013-09-06 15:46:00,83.9,63.9,30.20,North,0,1.1,3.4,51,0.00,,,0.00,WUHU216HW,2013-09-06 19:46:00,
2013-09-06 15:52:00,83.9,63.9,30.20,North,0,0.9,1.6,51,0.00,,,0.00,WUHU216HW,2013-09-06 19:52:00,
2013-09-06 15:57:00,83.2,63.2,30.19,North,0,0.4,1.1,51,0.00,,,0.00,WUHU216HW,2013-09-06 19:57:00,
2013-09-06 16:02:00,83.3,64.4,30.19,SE,135,1.1,1.1,53,0.00,,,0.00,WUHU216HW,2013-09-06 20:02:00,
2013-09-06 16:07:00,83.5,63.6,30.19,SE,125,1.0,1.1,51,0.00,,,0.00,WUHU216HW,2013-09-06 20:07:00,
2013-09-06 16:12:00,83.7,63.2,30.19,NNW,338,1.1,1.1,50,0.00,,,0.00,WUHU216HW,2013-09-06 20:12:00,
2013-09-06 16:17:00,83.9,62.7,30.19,West,270,1.1,1.1,49,0.00,,,0.00,WUHU216HW,2013-09-06 20:17:00,
2013-09-06 16:22:00,84.1,63.5,30.18,West,270,0.9,1.1,50,0.00,,,0.00,WUHU216HW,2013-09-06 20:22:00,
2013-09-06 16:27:00,85.7,65.5,30.18,SSE,158,2.5,2.5,51,0.00,,,0.00,WUHU216HW,2013-09-06 20:27:00,
2013-09-06 16:32:00,85.9,65.2,30.18,South,172,2.0,2.5,50,0.00,,,0.00,WUHU216HW,2013-09-06 20:32:00,
2013-09-06 16:37:00,85.3,65.3,30.18,ENE,68,0.2,2.5,51,0.00,,,0.00,WUHU216HW,2013-09-06 20:37:00,
2013-09-06 16:42:00,84.8,64.7,30.18,SE,135,0.9,1.8,51,0.00,,,0.00,WUHU216HW,2013-09-06 20:42:00,
2013-09-06 16:47:00,83.7,63.7,30.18,ESE,118,1.0,1.8,51,0.00,,,0.00,WUHU216HW,2013-09-06 20:47:00,
2013-09-06 16:53:00,83.2,63.7,30.18,SE,137,0.6,1.8,52,0.00,,,0.00,WUHU216HW,2013-09-06 20:53:00,
2013-09-06 16:58:00,82.6,63.6,30.17,SSE,158,0.0,0.9,53,0.00,,,0.00,WUHU216HW,2013-09-06 20:58:00,
2013-09-06 17:03:00,82.6,63.6,30.17,NNE,23,0.4,0.4,53,0.00,,,0.00,WUHU216HW,2013-09-06 21:03:00,
2013-09-06 17:08:00,82.8,63.8,30.17,WSW,248,0.7,0.7,53,0.00,,,0.00,WUHU216HW,2013-09-06 21:08:00,
2013-09-06 17:13:00,83.0,62.5,30.17,North,10,1.2,1.3,50,0.00,,,0.00,WUHU216HW,2013-09-06 21:13:00,
2013-09-06 17:18:00,82.8,63.4,30.17,ENE,68,0.4,1.3,52,0.00,,,0.00,WUHU216HW,2013-09-06 21:18:00,
2013-09-06 17:23:00,82.6,62.7,30.17,North,0,2.5,2.5,51,0.00,,,0.00,WUHU216HW,2013-09-06 21:23:00,
2013-09-06 17:28:00,82.3,62.3,30.17,NE,47,2.1,2.5,51,0.00,,,0.00,WUHU216HW,2013-09-06 21:28:00,
2013-09-06 17:33:00,82.1,61.6,30.17,NNW,338,2.2,2.5,50,0.00,,,0.00,WUHU216HW,2013-09-06 21:33:00,
2013-09-06 17:38:00,81.7,61.8,30.17,ESE,113,0.4,2.2,51,0.00,,,0.00,WUHU216HW,2013-09-06 21:38:00,
2013-09-06 17:43:00,81.7,61.8,30.17,NNW,338,0.4,2.2,51,0.00,,,0.00,WUHU216HW,2013-09-06 21:43:00,
2013-09-06 17:49:00,81.7,61.8,30.17,East,90,0.4,0.4,51,0.00,,,0.00,WUHU216HW,2013-09-06 21:49:00,
2013-09-06 17:54:00,81.7,61.8,30.17,South,180,1.3,1.8,51,0.00,,,0.00,WUHU216HW,2013-09-06 21:54:00,
2013-09-06 17:59:00,81.9,61.9,30.17,North,0,1.1,1.8,51,0.00,,,0.00,WUHU216HW,2013-09-06 21:59:00,
2013-09-06 18:04:00,81.7,61.8,30.16,NNW,338,0.0,1.3,51,0.00,,,0.00,WUHU216HW,2013-09-06 22:04:00,
2013-09-06 18:09:00,81.5,62.2,30.16,ESE,113,0.0,1.1,52,0.00,,,0.00,WUHU216HW,2013-09-06 22:09:00,
2013-09-06 18:14:00,81.4,62.0,30.17,ESE,113,0.7,0.7,52,0.00,,,0.00,WUHU216HW,2013-09-06 22:14:00,
2013-09-06 18:19:00,81.2,62.4,30.17,ESE,113,0.9,0.9,53,0.00,,,0.00,WUHU216HW,2013-09-06 22:19:00,
2013-09-06 18:24:00,81.0,62.2,30.17,North,0,1.3,1.3,53,0.00,,,0.00,WUHU216HW,2013-09-06 22:24:00,
2013-09-06 18:29:00,80.6,61.8,30.17,North,0,0.9,1.8,53,0.00,,,0.00,WUHU216HW,2013-09-06 22:29:00,
2013-09-06 18:34:00,80.5,61.8,30.17,North,0,0.4,1.8,53,0.00,,,0.00,WUHU216HW,2013-09-06 22:34:00,
2013-09-06 18:39:00,80.3,62.1,30.17,SE,135,0.0,0.9,54,0.00,,,0.00,WUHU216HW,2013-09-06 22:39:00,
2013-09-06 18:44:00,80.1,62.5,30.17,SE,135,0.0,0.4,55,0.00,,,0.00,WUHU216HW,2013-09-06 22:44:00,
2013-09-06 18:49:00,80.1,62.5,30.17,ESE,113,0.0,0.0,55,0.00,,,0.00,WUHU216HW,2013-09-06 22:49:00,
2013-09-06 18:55:00,79.7,62.7,30.16,ESE,113,0.0,0.0,56,0.00,,,0.00,WUHU216HW,2013-09-06 22:55:00,
2013-09-06 19:00:00,79.6,63.0,30.16,ESE,113,0.0,0.0,57,0.00,,,0.00,WUHU216HW,2013-09-06 23:00:00,
2013-09-06 19:05:00,78.8,62.8,30.16,ESE,113,0.0,0.0,58,0.00,,,0.00,WUHU216HW,2013-09-06 23:05:00,
2013-09-06 19:10:00,78.3,63.4,30.16,East,90,0.0,0.0,60,0.00,,,0.00,WUHU216HW,2013-09-06 23:10:00,
2013-09-06 19:15:00,77.6,62.6,30.16,East,90,0.0,0.0,60,0.00,,,0.00,WUHU216HW,2013-09-06 23:15:00,
2013-09-06 19:20:00,77.2,63.2,30.16,East,90,0.0,0.0,62,0.00,,,0.00,WUHU216HW,2013-09-06 23:20:00,
2013-09-06 19:25:00,76.9,63.3,30.16,East,90,0.0,0.0,63,0.00,,,0.00,WUHU216HW,2013-09-06 23:25:00,
2013-09-06 19:30:00,76.5,63.4,30.15,ENE,68,0.0,0.0,64,0.00,,,0.00,WUHU216HW,2013-09-06 23:30:00,
2013-09-06 19:35:00,76.0,62.9,30.15,ENE,68,0.0,0.0,64,0.00,,,0.00,WUHU216HW,2013-09-06 23:35:00,
2013-09-06 19:40:00,75.4,62.8,30.16,ENE,68,0.0,0.0,65,0.00,,,0.00,WUHU216HW,2013-09-06 23:40:00,
2013-09-06 19:45:00,74.7,62.6,30.16,ENE,68,0.0,0.0,66,0.00,,,0.00,WUHU216HW,2013-09-06 23:45:00,
2013-09-06 19:51:00,74.3,62.2,30.16,ENE,68,0.0,0.0,66,0.00,,,0.00,WUHU216HW,2013-09-06 23:51:00,
2013-09-06 19:56:00,73.8,62.2,30.16,ENE,68,0.0,0.0,67,0.00,,,0.00,WUHU216HW,2013-09-06 23:56:00,
2013-09-06 20:01:00,73.4,61.8,30.16,ENE,68,0.0,0.0,67,0.00,,,0.00,WUHU216HW,2013-09-07 00:01:00,
2013-09-06 20:06:00,72.9,61.7,30.16,ENE,68,0.0,0.0,68,0.00,,,0.00,WUHU216HW,2013-09-07 00:06:00,
2013-09-06 20:11:00,72.5,61.8,30.16,ENE,68,0.0,0.0,69,0.00,,,0.00,WUHU216HW,2013-09-07 00:11:00,
2013-09-06 20:16:00,72.2,61.9,30.17,ENE,68,0.0,0.0,70,0.00,,,0.00,WUHU216HW,2013-09-07 00:16:00,
2013-09-06 20:21:00,72.0,61.7,30.16,ENE,68,0.0,0.0,70,0.00,,,0.00,WUHU216HW,2013-09-07 00:21:00,
2013-09-06 20:26:00,71.6,61.4,30.17,ENE,68,0.0,0.0,70,0.00,,,0.00,WUHU216HW,2013-09-07 00:26:00,
2013-09-06 20:31:00,71.5,61.2,30.17,ENE,68,0.0,0.0,70,0.00,,,0.00,WUHU216HW,2013-09-07 00:31:00,
2013-09-06 20:36:00,71.3,61.0,30.17,ENE,68,0.0,0.0,70,0.00,,,0.00,WUHU216HW,2013-09-07 00:36:00,
2013-09-06 20:41:00,70.9,61.0,30.17,ENE,68,0.0,0.0,71,0.00,,,0.00,WUHU216HW,2013-09-07 00:41:00,
2013-09-06 20:47:00,70.7,60.8,30.17,ENE,68,0.0,0.0,71,0.00,,,0.00,WUHU216HW,2013-09-07 00:47:00,
2013-09-06 20:52:00,70.6,60.7,30.17,ENE,68,0.0,0.0,71,0.00,,,0.00,WUHU216HW,2013-09-07 00:52:00,
2013-09-06 20:57:00,70.2,60.7,30.17,NE,45,0.0,0.0,72,0.00,,,0.00,WUHU216HW,2013-09-07 00:57:00,
2013-09-06 21:02:00,69.8,60.3,30.18,NE,45,0.0,0.0,72,0.00,,,0.00,WUHU216HW,2013-09-07 01:02:00,
2013-09-06 21:07:00,69.7,60.6,30.18,NE,45,0.0,0.0,73,0.00,,,0.00,WUHU216HW,2013-09-07 01:07:00,
2013-09-06 21:12:00,69.5,60.4,30.18,NE,45,0.0,0.0,73,0.00,,,0.00,WUHU216HW,2013-09-07 01:12:00,
2013-09-06 21:17:00,69.1,60.5,30.18,NE,45,0.0,0.0,74,0.00,,,0.00,WUHU216HW,2013-09-07 01:17:00,
2013-09-06 21:22:00,68.9,60.3,30.18,NE,45,0.0,0.0,74,0.00,,,0.00,WUHU216HW,2013-09-07 01:22:00,
2013-09-06 21:28:00,68.8,60.1,30.18,NNE,23,0.0,0.0,74,0.00,,,0.00,WUHU216HW,2013-09-07 01:28:00,
2013-09-06 21:33:00,68.8,60.1,30.18,NNE,23,0.0,0.0,74,0.00,,,0.00,WUHU216HW,2013-09-07 01:33:00,
2013-09-06 21:38:00,68.4,59.8,30.19,ENE,68,0.0,0.0,74,0.00,,,0.00,WUHU216HW,2013-09-07 01:38:00,
2013-09-06 21:43:00,68.2,59.7,30.19,ENE,68,0.0,0.0,74,0.00,,,0.00,WUHU216HW,2013-09-07 01:43:00,
2013-09-06 21:48:00,67.9,59.7,30.19,NE,45,0.0,0.0,75,0.00,,,0.00,WUHU216HW,2013-09-07 01:48:00,
2013-09-06 21:53:00,67.9,60.0,30.19,North,0,0.4,0.7,76,0.00,,,0.00,WUHU216HW,2013-09-07 01:53:00,
2013-09-06 21:59:00,67.7,59.9,30.19,NNE,23,0.4,0.7,76,0.00,,,0.00,WUHU216HW,2013-09-07 01:59:00,
2013-09-06 22:04:00,67.7,59.9,30.19,NNE,23,0.4,0.4,76,0.00,,,0.00,WUHU216HW,2013-09-07 02:04:00,
2013-09-06 22:09:00,67.7,60.2,30.20,NNE,23,0.4,0.4,77,0.00,,,0.00,WUHU216HW,2013-09-07 02:09:00,
2013-09-06 22:14:00,67.7,60.2,30.20,North,0,0.0,0.4,77,0.00,,,0.00,WUHU216HW,2013-09-07 02:14:00,
2013-09-06 22:19:00,67.5,60.5,30.20,North,0,0.0,0.4,78,0.00,,,0.00,WUHU216HW,2013-09-07 02:19:00,
2013-09-06 22:24:00,67.5,60.5,30.20,North,0,0.0,0.4,78,0.00,,,0.00,WUHU216HW,2013-09-07 02:24:00,
2013-09-06 22:29:00,67.3,60.7,30.19,North,0,0.0,0.0,79,0.00,,,0.00,WUHU216HW,2013-09-07 02:29:00,
2013-09-06 22:34:00,67.3,60.7,30.19,North,0,0.4,0.4,79,0.00,,,0.00,WUHU216HW,2013-09-07 02:34:00,
2013-09-06 22:39:00,67.3,61.0,30.19,NNE,23,0.4,0.4,80,0.00,,,0.00,WUHU216HW,2013-09-07 02:39:00,
2013-09-06 22:44:00,67.3,61.0,30.19,NNE,23,0.4,0.4,80,0.00,,,0.00,WUHU216HW,2013-09-07 02:44:00,
2013-09-06 22:50:00,67.1,60.5,30.19,NNE,23,0.0,0.4,79,0.00,,,0.00,WUHU216HW,2013-09-07 02:50:00,
2013-09-06 22:55:00,67.0,60.7,30.19,North,0,0.0,0.0,80,0.00,,,0.00,WUHU216HW,2013-09-07 02:55:00,
2013-09-06 23:00:00,67.0,60.7,30.19,North,0,0.7,0.7,80,0.00,,,0.00,WUHU216HW,2013-09-07 03:00:00,
2013-09-06 23:05:00,66.8,60.5,30.19,NNE,23,0.0,0.7,80,0.00,,,0.00,WUHU216HW,2013-09-07 03:05:00,
2013-09-06 23:10:00,66.6,60.3,30.19,NNE,23,0.0,0.0,80,0.00,,,0.00,WUHU216HW,2013-09-07 03:10:00,
2013-09-06 23:15:00,66.6,60.3,30.19,NNE,23,0.0,0.0,80,0.00,,,0.00,WUHU216HW,2013-09-07 03:15:00,
2013-09-06 23:20:00,66.4,60.5,30.19,NNE,23,0.0,0.0,81,0.00,,,0.00,WUHU216HW,2013-09-07 03:20:00,
2013-09-06 23:25:00,66.4,60.5,30.19,NNE,23,0.0,0.4,81,0.00,,,0.00,WUHU216HW,2013-09-07 03:25:00,
2013-09-06 23:30:00,66.4,60.5,30.19,NE,45,0.0,0.4,81,0.00,,,0.00,WUHU216HW,2013-09-07 03:30:00,
2013-09-06 23:36:00,66.2,60.3,30.19,NNE,23,0.0,0.0,81,0.00,,,0.00,WUHU216HW,2013-09-07 03:36:00,
2013-09-06 23:41:00,66.2,60.3,30.19,North,0,0.4,0.4,81,0.00,,,0.00,WUHU216HW,2013-09-07 03:41:00,
2013-09-06 23:46:00,66.2,60.6,30.19,NNE,23,0.0,0.4,82,0.00,,,0.00,WUHU216HW,2013-09-07 03:46:00,
2013-09-06 23:51:00,66.2,60.6,30.19,North,0,0.4,0.4,82,0.00,,,0.00,WUHU216HW,2013-09-07 03:51:00,
2013-09-06 23:56:00,66.2,60.9,30.19,North,0,0.7,0.7,83,0.00,,,0.00,WUHU216HW,2013-09-07 03:56:00,